Terminal Aerodrome Forecast
Issued by NWS Topeka, KS

Home | Current Version | Previous Version | Graphics & Text | Print | Product List | Glossary On
Versions: 1 2 3 4 5 6 7 8 9 10 11 12 13 14 15 16 17 18 19 20 21 22 23
000
FTUS43 KTOP 012300
TAFTOP
TAF
KTOP 012323Z 0200/0224 12008KT P6SM VCTS BKN040CB
     FM020600 13007KT P6SM VCTS BKN035CB
      TEMPO 0209/0213 2SM TSRA OVC030CB
     FM021500 13005KT 3SM -TSRA BKN030CB
     FM022100 32012G20KT P6SM BKN020=

USA.gov is the U.S. government's official web portal to all federal, state and local government web resources and services.